Time;durP1;ratioP1;P1;durP2;ratioP2;P2;SDS_P1;SDS_P2;PMS_P1;PMS_P2;Temp;Humidity;BMP_temperature;BMP_pressure;BME280_temperature;BME280_humidity;BME280_pressure;Samples;Min_cycle;Max_cycle;Signal;HPM_P1;HPM_P2
2022/08/05 00:02:04;;;;;;;2.85;0.90;;;19.40;99.90;;;;;;5009139;28;20056;-78
2022/08/05 00:04:38;;;;;;;4.03;1.40;;;19.40;99.90;;;;;;5019021;28;20057;-77
2022/08/05 00:07:37;;;;;;;4.10;1.27;;;19.40;99.90;;;;;;5004179;28;20106;-78
2022/08/05 00:10:11;;;;;;;3.58;1.00;;;19.30;99.90;;;;;;4996305;28;20383;-80
2022/08/05 00:12:59;;;;;;;3.75;2.20;;;19.30;99.90;;;;;;5004500;28;20481;-81
2022/08/05 00:15:37;;;;;;;5.10;2.45;;;19.30;99.90;;;;;;5016458;28;20036;-81
2022/08/05 00:18:14;;;;;;;3.20;1.85;;;19.30;99.90;;;;;;5014004;28;20046;-87
2022/08/05 00:21:06;;;;;;;6.50;2.15;;;19.20;99.90;;;;;;5000906;28;20049;-84
2022/08/05 00:23:35;;;;;;;3.75;1.35;;;19.10;99.90;;;;;;5000933;28;20048;-85
2022/08/05 00:26:08;;;;;;;3.80;1.20;;;19.10;99.90;;;;;;4982486;28;20030;-91
2022/08/05 00:32:00;;;;;;;3.70;1.23;;;19.10;99.90;;;;;;4950637;28;20075;-83
2022/08/05 00:34:29;;;;;;;3.25;1.10;;;19.10;99.90;;;;;;4999467;28;20072;-83
2022/08/05 00:36:56;;;;;;;3.85;1.17;;;19.10;99.90;;;;;;4989887;28;20052;-86
2022/08/05 00:39:51;;;;;;;4.60;1.95;;;19.10;99.90;;;;;;4973667;28;20033;-82
2022/08/05 00:42:35;;;;;;;4.68;1.40;;;19.00;99.90;;;;;;4945242;28;20838;-83
2022/08/05 00:45:09;;;;;;;3.05;1.45;;;18.90;99.90;;;;;;5019452;28;20032;-84
2022/08/05 00:47:37;;;;;;;4.85;1.55;;;18.90;99.90;;;;;;5021188;28;20036;-78
2022/08/05 00:50:11;;;;;;;4.50;1.52;;;18.90;99.90;;;;;;5021962;28;20068;-79
2022/08/05 00:52:50;;;;;;;5.32;2.97;;;18.90;99.90;;;;;;4993924;28;20037;-79
2022/08/05 00:55:32;;;;;;;5.80;4.85;;;18.90;99.90;;;;;;4985371;28;20041;-78
2022/08/05 00:58:11;;;;;;;6.22;4.32;;;18.90;99.90;;;;;;4971925;28;20053;-77
2022/08/05 01:00:41;;;;;;;4.97;2.85;;;18.90;99.90;;;;;;5003789;28;20034;-78
2022/08/05 01:03:09;;;;;;;6.40;2.78;;;18.80;99.90;;;;;;4987947;28;20029;-77
2022/08/05 01:05:37;;;;;;;4.80;3.47;;;18.80;99.90;;;;;;5018039;28;20109;-79
2022/08/05 01:08:04;;;;;;;4.82;2.47;;;18.90;99.90;;;;;;4986631;28;20044;-79
2022/08/05 01:10:47;;;;;;;5.30;2.65;;;18.90;99.90;;;;;;5005765;28;20044;-80
2022/08/05 01:13:36;;;;;;;4.25;1.58;;;18.90;99.90;;;;;;5003139;28;20036;-80
2022/08/05 01:16:08;;;;;;;3.17;1.70;;;18.90;99.90;;;;;;5000861;28;20037;-79
2022/08/05 01:18:45;;;;;;;;;;;18.90;99.90;;;;;;5019732;28;20060;-81
2022/08/05 01:21:37;;;;;;;3.47;1.38;;;18.90;99.90;;;;;;5002222;28;20404;-81
2022/08/05 01:24:15;;;;;;;;;;;18.90;99.90;;;;;;4984383;28;20025;-82
2022/08/05 01:27:08;;;;;;;3.67;1.70;;;18.80;99.90;;;;;;5016998;28;19938;-82
2022/08/05 01:29:47;;;;;;;2.55;1.40;;;18.80;99.90;;;;;;5017917;28;20029;-82
2022/08/05 01:32:21;;;;;;;4.35;1.95;;;18.80;99.90;;;;;;5019382;28;20021;-84
2022/08/05 01:34:53;;;;;;;4.25;1.58;;;18.80;99.90;;;;;;5000549;28;20030;-83
2022/08/05 01:37:38;;;;;;;3.42;1.30;;;18.80;99.90;;;;;;5019185;28;20017;-79
2022/08/05 01:40:07;;;;;;;3.13;1.48;;;18.80;99.90;;;;;;4993956;28;20045;-82
2022/08/05 01:42:36;;;;;;;7.10;1.75;;;18.80;99.90;;;;;;5017088;28;20373;-82
2022/08/05 01:45:07;;;;;;;5.55;2.38;;;18.80;99.90;;;;;;5018020;28;20030;-82
2022/08/05 01:47:36;;;;;;;3.53;1.52;;;18.80;99.90;;;;;;5017922;28;20017;-82
2022/08/05 01:50:07;;;;;;;3.78;1.63;;;18.80;99.90;;;;;;4987213;28;20041;-81
2022/08/05 01:52:37;;;;;;;4.30;2.28;;;18.80;99.90;;;;;;5005249;28;20017;-81
2022/08/05 01:55:07;;;;;;;3.97;1.50;;;18.80;99.90;;;;;;5000802;28;20377;-80
2022/08/05 01:57:40;;;;;;;4.03;1.38;;;18.70;99.90;;;;;;4989610;28;20029;-80
2022/08/05 02:00:15;;;;;;;4.35;1.27;;;18.80;99.90;;;;;;5003845;28;20849;-80
2022/08/05 02:02:52;;;;;;;4.65;1.70;;;18.80;99.90;;;;;;4990435;28;20040;-79
2022/08/05 02:05:47;;;;;;;5.68;1.25;;;18.80;99.90;;;;;;5017469;28;20022;-79
2022/08/05 02:08:15;;;;;;;4.38;1.38;;;18.80;99.90;;;;;;4988917;28;20038;-79
2022/08/05 02:10:51;;;;;;;6.82;4.78;;;18.80;99.90;;;;;;5003619;28;20476;-78
2022/08/05 02:13:38;;;;;;;4.10;2.17;;;18.80;99.90;;;;;;5002631;28;20044;-79
2022/08/05 02:16:54;;;;;;;4.93;1.65;;;18.80;99.90;;;;;;5007133;28;20480;-80
2022/08/05 02:20:03;;;;;;;7.30;1.88;;;18.80;99.90;;;;;;5027610;28;20026;-80
2022/08/05 02:22:44;;;;;;;5.15;1.88;;;18.90;99.90;;;;;;5026233;28;20424;-79
2022/08/05 02:25:27;;;;;;;5.43;2.20;;;18.90;99.90;;;;;;5019431;28;20076;-80
2022/08/05 02:28:16;;;;;;;4.40;2.00;;;18.90;99.90;;;;;;5006040;28;20041;-80
2022/08/05 02:30:55;;;;;;;4.38;1.60;;;18.90;99.90;;;;;;5009220;28;20354;-80
2022/08/05 02:33:40;;;;;;;4.30;1.88;;;18.90;99.90;;;;;;5005414;28;20036;-80
2022/08/05 02:36:12;;;;;;;8.63;2.00;;;18.90;99.90;;;;;;4988304;28;20485;-80
2022/08/05 02:38:54;;;;;;;3.72;1.48;;;19.00;99.90;;;;;;5006183;28;20033;-80
2022/08/05 02:41:41;;;;;;;4.85;1.60;;;18.90;99.90;;;;;;5008693;28;20049;-79
2022/08/05 02:44:13;;;;;;;5.07;1.92;;;18.90;99.90;;;;;;5020374;28;20033;-80
2022/08/05 02:47:17;;;;;;;4.05;1.95;;;18.90;99.90;;;;;;5009283;28;20349;-79
2022/08/05 02:49:49;;;;;;;3.92;1.50;;;18.90;99.90;;;;;;4989891;28;20033;-79
2022/08/05 02:52:24;;;;;;;4.80;1.15;;;18.80;99.90;;;;;;5006640;28;20057;-77
2022/08/05 02:54:53;;;;;;;2.35;1.40;;;18.80;99.90;;;;;;4985783;28;20060;-79
2022/08/05 02:57:27;;;;;;;6.80;2.03;;;18.80;99.90;;;;;;5023757;28;20492;-79
2022/08/05 02:59:56;;;;;;;5.22;3.03;;;18.80;99.90;;;;;;4977725;28;20042;-79
2022/08/05 03:02:30;;;;;;;4.47;2.60;;;18.70;99.90;;;;;;5024502;28;20045;-79
2022/08/05 03:04:57;;;;;;;8.35;5.32;;;18.70;99.90;;;;;;4987388;28;20063;-78
2022/08/05 03:07:26;;;;;;;7.13;3.35;;;18.60;99.90;;;;;;5007397;28;20028;-78
2022/08/05 03:09:53;;;;;;;5.90;2.67;;;18.60;99.90;;;;;;4989453;28;20030;-80
2022/08/05 03:12:33;;;;;;;6.68;1.98;;;18.60;99.90;;;;;;4971262;28;20377;-78
2022/08/05 03:15:02;;;;;;;4.03;2.10;;;18.60;99.90;;;;;;5002329;28;20037;-81
2022/08/05 03:17:29;;;;;;;5.85;1.98;;;18.60;99.90;;;;;;4988116;28;20040;-81
2022/08/05 03:19:56;;;;;;;3.90;1.75;;;18.70;99.90;;;;;;4993028;28;20034;-81
2022/08/05 03:22:25;;;;;;;3.90;1.40;;;18.70;99.90;;;;;;4991748;28;20060;-81
2022/08/05 03:24:52;;;;;;;3.83;1.90;;;18.70;99.90;;;;;;5001718;28;20029;-82
2022/08/05 03:27:21;;;;;;;3.72;1.38;;;18.70;99.90;;;;;;5006490;28;20354;-82
2022/08/05 03:29:48;;;;;;;3.15;1.10;;;18.70;99.90;;;;;;4989600;28;20017;-82
2022/08/05 03:32:19;;;;;;;3.92;1.75;;;18.70;99.90;;;;;;5023802;28;21528;-81
2022/08/05 03:34:49;;;;;;;2.53;1.55;;;18.80;99.90;;;;;;5005263;28;20033;-81
2022/08/05 03:37:24;;;;;;;3.67;1.45;;;18.80;99.90;;;;;;5006273;28;20041;-81
2022/08/05 03:39:57;;;;;;;6.13;1.77;;;18.80;99.90;;;;;;4970058;28;20117;-81
2022/08/05 03:42:25;;;;;;;4.55;1.08;;;18.80;99.90;;;;;;5006599;28;20385;-81
2022/08/05 03:44:56;;;;;;;2.60;1.35;;;18.70;99.90;;;;;;5003561;28;20033;-82
2022/08/05 03:47:24;;;;;;;2.63;1.20;;;18.70;99.90;;;;;;5023115;28;20048;-81
2022/08/05 03:49:50;;;;;;;4.50;1.95;;;18.70;99.90;;;;;;4991642;28;20034;-81
2022/08/05 03:52:25;;;;;;;3.47;1.60;;;18.70;99.90;;;;;;5004942;28;20025;-81
2022/08/05 03:55:14;;;;;;;5.63;2.10;;;18.70;99.90;;;;;;5019420;28;20052;-82
2022/08/05 03:57:52;;;;;;;3.28;1.70;;;18.70;99.90;;;;;;5005429;28;20032;-80
2022/08/05 04:00:53;;;;;;;2.75;1.30;;;18.60;99.90;;;;;;5003627;28;20037;-80
2022/08/05 04:03:39;;;;;;;2.63;1.10;;;18.70;99.90;;;;;;4961920;28;20052;-80
2022/08/05 04:06:21;;;;;;;3.83;1.40;;;18.70;99.90;;;;;;5003375;28;20061;-80
2022/08/05 04:09:21;;;;;;;5.35;1.30;;;18.70;99.90;;;;;;5022332;28;20052;-80
2022/08/05 04:12:11;;;;;;;2.85;1.25;;;18.70;99.90;;;;;;5003453;28;20049;-80
2022/08/05 04:15:00;;;;;;;2.67;1.35;;;18.70;99.90;;;;;;5002092;28;20044;-81
2022/08/05 04:17:32;;;;;;;5.20;1.40;;;18.80;99.90;;;;;;5002563;28;20049;-80
2022/08/05 04:20:25;;;;;;;3.22;1.38;;;18.80;99.90;;;;;;5005221;28;20029;-80
2022/08/05 04:22:57;;;;;;;3.00;0.90;;;18.80;99.90;;;;;;5023824;28;20053;-81
2022/08/05 04:25:32;;;;;;;3.22;1.25;;;18.80;99.90;;;;;;5004519;28;20033;-80
2022/08/05 04:28:04;;;;;;;4.55;1.45;;;18.80;99.90;;;;;;5023368;28;20052;-81
2022/08/05 04:30:43;;;;;;;4.20;1.77;;;18.80;99.90;;;;;;5022737;28;20030;-81
2022/08/05 04:33:22;;;;;;;3.30;1.20;;;18.70;99.90;;;;;;5021833;28;20483;-81
2022/08/05 04:36:26;;;;;;;3.97;1.30;;;18.70;99.90;;;;;;4988513;28;20503;-81
2022/08/05 04:39:13;;;;;;;3.55;1.42;;;18.60;99.90;;;;;;4945745;28;20047;-80
2022/08/05 04:41:42;;;;;;;3.53;0.98;;;18.60;99.90;;;;;;4974210;28;20050;-80
2022/08/05 04:44:11;;;;;;;5.32;1.75;;;18.50;99.90;;;;;;4931227;28;20504;-80
2022/08/05 04:46:41;;;;;;;3.38;1.40;;;18.50;99.90;;;;;;4981135;28;20055;-80
2022/08/05 04:49:28;;;;;;;3.22;1.20;;;18.60;99.90;;;;;;4964841;28;20049;-80
2022/08/05 04:52:14;;;;;;;3.78;0.90;;;18.60;99.90;;;;;;4979901;28;20027;-80
2022/08/05 04:54:47;;;;;;;6.40;1.85;;;18.60;99.90;;;;;;4957426;28;20049;-80
2022/08/05 04:57:31;;;;;;;3.85;1.02;;;18.70;99.90;;;;;;4964651;28;20067;-80
2022/08/05 05:00:23;;;;;;;3.15;1.00;;;18.70;99.90;;;;;;4964540;28;20043;-80
2022/08/05 05:02:58;;;;;;;3.67;1.55;;;18.70;99.90;;;;;;4942312;28;20369;-80
2022/08/05 05:06:01;;;;;;;2.88;1.35;;;18.80;99.90;;;;;;5017878;28;20042;-80
2022/08/05 05:08:30;;;;;;;3.00;1.00;;;18.80;99.90;;;;;;5014187;28;20487;-81
2022/08/05 05:10:57;;;;;;;2.85;0.85;;;18.80;99.90;;;;;;5023947;28;20048;-81
2022/08/05 05:13:23;;;;;;;4.78;1.40;;;18.80;99.90;;;;;;4988192;28;20030;-81
2022/08/05 05:15:52;;;;;;;1.45;0.80;;;18.80;99.90;;;;;;4986934;28;20106;-81
2022/08/05 05:18:19;;;;;;;3.33;1.10;;;18.90;99.90;;;;;;4988594;28;20025;-81
2022/08/05 05:20:46;;;;;;;3.80;1.38;;;18.80;99.90;;;;;;4971664;28;20049;-80
2022/08/05 05:23:13;;;;;;;3.20;1.20;;;18.90;99.90;;;;;;5004174;28;20025;-80
2022/08/05 05:25:41;;;;;;;3.90;1.23;;;18.90;99.90;;;;;;5002024;28;20033;-80
2022/08/05 05:28:09;;;;;;;3.50;1.17;;;18.90;99.90;;;;;;5004051;28;20021;-80
2022/08/05 05:30:36;;;;;;;5.28;1.30;;;19.00;99.90;;;;;;5004234;28;20025;-80
2022/08/05 05:33:04;;;;;;;3.72;1.20;;;19.00;99.90;;;;;;4987774;28;20025;-80
2022/08/05 05:35:31;;;;;;;4.43;1.30;;;19.00;99.90;;;;;;5018360;28;20018;-80
2022/08/05 05:38:01;;;;;;;3.55;1.17;;;19.00;99.90;;;;;;4974003;28;20030;-81
2022/08/05 05:40:29;;;;;;;2.60;0.98;;;19.00;99.90;;;;;;5006254;28;20029;-81
2022/08/05 05:42:56;;;;;;;3.10;0.95;;;19.10;99.90;;;;;;4971691;28;20133;-81
2022/08/05 05:45:23;;;;;;;2.28;0.93;;;19.20;99.90;;;;;;5018465;28;20036;-81
2022/08/05 05:47:50;;;;;;;3.95;1.20;;;19.20;99.90;;;;;;5003554;28;20028;-81
2022/08/05 05:50:18;;;;;;;3.90;1.15;;;19.30;99.90;;;;;;5021573;28;20022;-81
2022/08/05 05:52:46;;;;;;;4.78;1.27;;;19.30;99.90;;;;;;4975010;28;20045;-80
2022/08/05 05:55:14;;;;;;;3.00;0.85;;;19.20;99.90;;;;;;4983324;28;20373;-80
2022/08/05 05:57:43;;;;;;;3.20;1.05;;;19.20;99.90;;;;;;4987382;28;20018;-80
2022/08/05 06:01:04;;;;;;;2.72;1.00;;;19.10;99.90;;;;;;5004505;28;20048;-80
2022/08/05 06:03:36;;;;;;;2.72;0.70;;;19.10;99.90;;;;;;4896174;29;20047;-80
2022/08/05 06:06:24;;;;;;;5.25;1.20;;;19.10;99.90;;;;;;4888082;29;20048;-79
2022/08/05 06:09:16;;;;;;;2.85;0.95;;;19.10;99.90;;;;;;4902756;29;20067;-80
2022/08/05 06:12:17;;;;;;;2.50;0.85;;;19.20;99.90;;;;;;4915596;29;20039;-80
2022/08/05 06:18:36;;;;;;;4.68;0.73;;;19.20;99.90;;;;;;4917255;29;20039;-80
2022/08/05 06:21:12;;;;;;;3.40;1.00;;;19.30;99.90;;;;;;4906318;29;20067;-79
2022/08/05 06:23:47;;;;;;;2.53;1.05;;;19.40;99.90;;;;;;4907745;29;20305;-80
2022/08/05 06:26:17;;;;;;;3.20;0.80;;;19.50;99.90;;;;;;4888809;29;20172;-80
2022/08/05 06:28:45;;;;;;;3.58;1.05;;;19.60;99.90;;;;;;4902062;29;20063;-80
2022/08/05 06:31:25;;;;;;;4.55;1.15;;;19.70;99.90;;;;;;4912466;29;20044;-80
2022/08/05 06:34:46;;;;;;;5.97;1.00;;;19.80;99.90;;;;;;4908770;29;20048;-80
2022/08/05 06:37:16;;;;;;;4.07;0.98;;;19.90;99.90;;;;;;4882920;29;20040;-79
2022/08/05 06:40:03;;;;;;;2.28;0.80;;;20.00;99.90;;;;;;4890779;29;20043;-79
2022/08/05 06:42:50;;;;;;;2.67;0.70;;;20.10;99.90;;;;;;4888394;29;20052;-79
2022/08/05 06:45:45;;;;;;;2.80;0.75;;;20.10;99.90;;;;;;4899888;29;20036;-79
2022/08/05 06:48:56;;;;;;;2.92;0.90;;;20.10;99.90;;;;;;4889996;29;20043;-79
2022/08/05 06:51:37;;;;;;;3.20;1.00;;;20.10;99.90;;;;;;4898188;29;20119;-79
2022/08/05 06:54:10;;;;;;;2.97;0.90;;;20.10;99.90;;;;;;4889263;29;20047;-79
2022/08/05 06:56:45;;;;;;;2.65;0.93;;;20.20;99.90;;;;;;4879095;29;20059;-79
2022/08/05 06:59:27;;;;;;;3.00;0.80;;;20.20;99.90;;;;;;4913437;29;20099;-80
2022/08/05 07:01:54;;;;;;;3.50;0.60;;;20.20;99.90;;;;;;4956758;28;20043;-80
2022/08/05 07:04:21;;;;;;;3.00;0.70;;;20.20;99.90;;;;;;4989201;28;20073;-80
2022/08/05 07:06:48;;;;;;;4.15;0.98;;;20.20;99.90;;;;;;4990407;28;20036;-80
2022/08/05 07:09:14;;;;;;;2.78;0.70;;;20.20;99.90;;;;;;5005811;28;20492;-80
2022/08/05 07:11:41;;;;;;;3.15;0.70;;;20.30;99.90;;;;;;4973142;28;20040;-79
2022/08/05 07:16:59;;;;;;;2.35;0.50;;;20.20;99.90;;;;;;5024960;28;20041;-79
2022/08/05 07:19:28;;;;;;;2.28;0.60;;;20.30;99.90;;;;;;5007916;28;20046;-79
2022/08/05 07:21:56;;;;;;;3.72;0.70;;;20.30;99.90;;;;;;4976377;28;20025;-79
2022/08/05 07:24:23;;;;;;;2.65;0.73;;;20.30;99.90;;;;;;4983622;28;20060;-79
2022/08/05 07:26:50;;;;;;;2.15;0.55;;;20.30;99.90;;;;;;5021946;28;20010;-79
2022/08/05 07:29:18;;;;;;;1.77;0.75;;;20.40;99.90;;;;;;5005512;28;20029;-78
2022/08/05 07:31:44;;;;;;;2.20;0.73;;;20.60;99.90;;;;;;5026100;28;20026;-79
2022/08/05 07:34:11;;;;;;;3.33;0.70;;;20.80;99.90;;;;;;5002773;28;20385;-79
2022/08/05 07:36:37;;;;;;;1.95;0.57;;;20.80;99.90;;;;;;4988718;28;20030;-79
2022/08/05 07:39:06;;;;;;;3.08;0.55;;;20.90;99.90;;;;;;5004977;28;20025;-78
2022/08/05 07:41:34;;;;;;;2.72;0.60;;;21.00;99.90;;;;;;4988756;28;20029;-80
2022/08/05 07:44:01;;;;;;;5.53;0.80;;;21.00;99.90;;;;;;4989480;28;20410;-79
2022/08/05 07:46:29;;;;;;;2.28;0.50;;;21.10;99.90;;;;;;5004694;28;20017;-79
2022/08/05 07:48:59;;;;;;;3.00;0.50;;;21.20;99.90;;;;;;4988738;28;20038;-79
2022/08/05 07:51:25;;;;;;;3.53;0.70;;;21.20;99.90;;;;;;5005886;28;20021;-80
2022/08/05 07:53:51;;;;;;;2.45;0.40;;;21.30;99.90;;;;;;4988968;28;20642;-79
2022/08/05 07:56:18;;;;;;;2.85;0.50;;;21.30;99.90;;;;;;5001822;28;20034;-79
2022/08/05 07:58:49;;;;;;;3.55;0.75;;;21.30;99.90;;;;;;5007438;28;20034;-79
2022/08/05 08:01:51;;;;;;;2.65;0.50;;;21.30;99.90;;;;;;5010646;28;20045;-79
2022/08/05 08:04:18;;;;;;;2.83;0.50;;;21.50;99.90;;;;;;5020148;28;20052;-80
2022/08/05 08:07:07;;;;;;;2.95;0.40;;;21.70;99.90;;;;;;5006515;28;20046;-80
2022/08/05 08:10:00;;;;;;;1.05;0.43;;;22.10;99.90;;;;;;5005997;28;20056;-80
2022/08/05 08:12:30;;;;;;;1.38;0.50;;;22.20;99.90;;;;;;5022222;28;20030;-79
2022/08/05 08:15:39;;;;;;;2.30;0.40;;;22.10;99.90;;;;;;5012863;28;20050;-79
2022/08/05 08:18:18;;;;;;;2.45;0.35;;;22.00;99.90;;;;;;5020855;28;20026;-80
2022/08/05 08:20:50;;;;;;;1.63;0.40;;;22.00;99.90;;;;;;4987512;28;20049;-79
2022/08/05 08:23:34;;;;;;;1.48;0.40;;;22.00;99.90;;;;;;4991162;28;20390;-80
2022/08/05 08:26:12;;;;;;;1.98;0.40;;;22.10;99.90;;;;;;5002396;28;20029;-80
2022/08/05 08:28:42;;;;;;;5.47;0.40;;;22.30;99.90;;;;;;5007212;28;20037;-79
2022/08/05 08:31:19;;;;;;;3.17;0.40;;;22.50;99.90;;;;;;5022079;28;20389;-79
2022/08/05 08:33:57;;;;;;;2.33;0.40;;;22.70;99.90;;;;;;5019310;28;20068;-79
2022/08/05 08:36:47;;;;;;;1.08;0.32;;;23.00;99.90;;;;;;4994097;28;20038;-80
2022/08/05 08:39:27;;;;;;;2.87;0.40;;;23.30;99.90;;;;;;5020964;28;20046;-80
2022/08/05 08:41:55;;;;;;;0.80;0.30;;;23.40;99.90;;;;;;5004045;28;20048;-80
2022/08/05 08:44:46;;;;;;;1.88;0.40;;;23.60;99.90;;;;;;4984605;28;20033;-80
2022/08/05 08:47:17;;;;;;;2.42;0.50;;;23.70;99.40;;;;;;4995216;28;20029;-79
2022/08/05 08:49:57;;;;;;;0.85;0.30;;;23.70;98.90;;;;;;5023977;28;20029;-80
2022/08/05 08:52:52;;;;;;;1.27;0.40;;;23.70;98.70;;;;;;5023650;28;20397;-80
2022/08/05 08:55:33;;;;;;;0.90;0.38;;;23.70;97.70;;;;;;5019262;28;20381;-80
2022/08/05 08:58:00;;;;;;;1.48;0.30;;;23.60;97.60;;;;;;5022691;28;20476;-79
2022/08/05 09:00:27;;;;;;;1.25;0.30;;;23.50;97.90;;;;;;4995144;28;20380;-80
2022/08/05 09:02:57;;;;;;;1.08;0.30;;;23.40;98.50;;;;;;4991272;28;20042;-79
2022/08/05 09:05:23;;;;;;;1.80;0.40;;;23.40;98.70;;;;;;5000811;28;20393;-80
2022/08/05 09:07:51;;;;;;;2.53;0.40;;;23.30;98.70;;;;;;4973130;28;20034;-78
2022/08/05 09:10:18;;;;;;;2.47;0.38;;;23.10;98.80;;;;;;5021649;28;20076;-81
2022/08/05 09:12:45;;;;;;;1.95;0.50;;;23.00;99.10;;;;;;5003302;28;20037;-81
2022/08/05 09:15:11;;;;;;;1.33;0.30;;;23.00;99.20;;;;;;4984207;28;20033;-78
2022/08/05 09:17:39;;;;;;;0.85;0.30;;;23.00;98.60;;;;;;4988202;28;20100;-77
2022/08/05 09:20:06;;;;;;;1.58;0.47;;;23.00;98.10;;;;;;5004923;28;20030;-78
2022/08/05 09:23:01;;;;;;;2.10;0.90;;;23.10;97.40;;;;;;5004992;28;20032;-78
2022/08/05 09:25:27;;;;;;;7.93;6.22;;;23.20;96.70;;;;;;5001423;28;20036;-77
2022/08/05 09:27:54;;;;;;;1.70;1.10;;;23.40;96.00;;;;;;5021182;28;20026;-78
2022/08/05 09:30:21;;;;;;;2.88;0.50;;;23.50;95.70;;;;;;4970580;28;20030;-79
2022/08/05 09:32:47;;;;;;;0.75;0.30;;;23.60;95.60;;;;;;5021339;28;20026;-79
2022/08/05 09:35:16;;;;;;;0.75;0.30;;;23.70;95.50;;;;;;4999758;28;20025;-79
2022/08/05 09:37:50;;;;;;;0.55;0.20;;;23.80;95.00;;;;;;5004784;28;20034;-79
2022/08/05 09:40:39;;;;;;;1.15;0.30;;;23.80;95.00;;;;;;4988752;28;20034;-79
2022/08/05 09:43:09;;;;;;;1.30;0.32;;;23.90;95.20;;;;;;4987139;28;20036;-79
2022/08/05 09:45:41;;;;;;;0.90;0.20;;;24.00;94.70;;;;;;4967829;28;20076;-79
2022/08/05 09:48:20;;;;;;;0.80;0.20;;;24.00;94.70;;;;;;4987661;28;20034;-80
2022/08/05 09:50:58;;;;;;;0.80;0.30;;;24.10;94.60;;;;;;5020561;28;20024;-79
2022/08/05 09:53:25;;;;;;;0.70;0.20;;;24.50;94.30;;;;;;4986375;28;20032;-79
2022/08/05 09:56:01;;;;;;;1.90;0.30;;;24.70;93.70;;;;;;5020449;28;20032;-79
2022/08/05 09:58:27;;;;;;;1.48;0.52;;;24.80;92.80;;;;;;5004483;28;20025;-79
2022/08/05 10:01:00;;;;;;;1.40;0.40;;;24.80;92.20;;;;;;5003288;28;20036;-79
2022/08/05 10:03:28;;;;;;;1.15;0.50;;;24.80;92.10;;;;;;5013624;28;20033;-79
2022/08/05 10:06:08;;;;;;;1.35;0.30;;;24.90;91.70;;;;;;5023076;28;20025;-79
2022/08/05 10:08:37;;;;;;;0.90;0.20;;;25.10;91.10;;;;;;5024513;28;20024;-76
2022/08/05 10:11:14;;;;;;;0.60;0.20;;;25.30;90.10;;;;;;5026444;28;20060;-77
2022/08/05 10:13:42;;;;;;;0.45;0.20;;;25.30;88.00;;;;;;5008688;28;20032;-76
2022/08/05 10:16:33;;;;;;;0.30;0.20;;;25.40;87.70;;;;;;4988460;28;20034;-78
2022/08/05 10:19:00;;;;;;;2.10;0.30;;;25.50;87.40;;;;;;5024475;28;20460;-76
2022/08/05 10:21:27;;;;;;;1.40;0.50;;;25.60;85.40;;;;;;5025165;28;20033;-76
2022/08/05 10:23:54;;;;;;;2.40;0.50;;;25.60;83.10;;;;;;5023375;28;20045;-76
2022/08/05 10:26:21;;;;;;;1.50;0.30;;;25.60;83.10;;;;;;5022163;28;20480;-76
2022/08/05 10:28:48;;;;;;;1.00;0.20;;;25.40;80.90;;;;;;5007790;28;20041;-78
2022/08/05 10:31:15;;;;;;;0.75;0.20;;;25.10;81.50;;;;;;5005951;28;20045;-78
2022/08/05 10:33:42;;;;;;;0.98;0.20;;;25.00;81.50;;;;;;5023657;28;20013;-78
2022/08/05 10:36:10;;;;;;;0.55;0.20;;;24.90;81.40;;;;;;5020996;28;20025;-78
2022/08/05 10:38:43;;;;;;;0.47;0.20;;;24.90;81.50;;;;;;5023569;28;20036;-78
2022/08/05 10:41:40;;;;;;;0.77;0.20;;;25.00;80.60;;;;;;5006120;28;20040;-78
2022/08/05 10:44:11;;;;;;;1.17;0.20;;;25.00;79.90;;;;;;4964236;28;20051;-79
2022/08/05 10:46:49;;;;;;;0.60;0.20;;;25.30;80.30;;;;;;5025930;28;20029;-80
2022/08/05 10:49:16;;;;;;;1.42;0.20;;;25.80;79.20;;;;;;5006053;28;20043;-76
2022/08/05 10:51:43;;;;;;;0.73;0.20;;;26.00;79.20;;;;;;5005999;28;20021;-76
2022/08/05 10:54:10;;;;;;;2.55;0.50;;;26.50;77.40;;;;;;5003926;28;20028;-75
2022/08/05 10:56:46;;;;;;;0.40;0.20;;;27.00;75.20;;;;;;5003903;28;20018;-76
2022/08/05 10:59:18;;;;;;;0.60;0.30;;;27.40;74.70;;;;;;5023643;28;20028;-76
2022/08/05 11:01:44;;;;;;;1.67;0.40;;;27.70;73.40;;;;;;5008508;28;20017;-76
2022/08/05 11:04:16;;;;;;;1.70;0.22;;;28.10;73.00;;;;;;5022593;28;20014;-76
2022/08/05 11:07:06;;;;;;;0.98;0.28;;;28.10;70.90;;;;;;5022830;28;20013;-78
2022/08/05 11:09:40;;;;;;;0.45;0.20;;;27.90;68.50;;;;;;5017005;28;20025;-78
2022/08/05 11:12:25;;;;;;;1.17;0.25;;;27.50;67.90;;;;;;5004795;28;20030;-78
2022/08/05 11:15:19;;;;;;;0.55;0.30;;;27.20;67.50;;;;;;5021006;28;20021;-78
2022/08/05 11:17:51;;;;;;;1.52;0.30;;;27.10;67.50;;;;;;4991430;28;20030;-78
2022/08/05 11:20:37;;;;;;;0.77;0.13;;;27.50;66.60;;;;;;4992792;28;20052;-78
2022/08/05 11:23:28;;;;;;;0.80;0.20;;;27.90;64.80;;;;;;4997655;28;20484;-78
2022/08/05 11:26:20;;;;;;;0.40;0.20;;;28.30;64.00;;;;;;5005506;28;20048;-78
2022/08/05 11:28:51;;;;;;;0.50;0.20;;;28.30;62.30;;;;;;5008217;28;20461;-78
2022/08/05 11:31:32;;;;;;;2.35;0.30;;;28.00;60.60;;;;;;5006206;28;20029;-78
2022/08/05 11:34:06;;;;;;;1.10;0.20;;;27.60;61.00;;;;;;4989822;28;20508;-78
2022/08/05 11:36:50;;;;;;;2.50;0.40;;;27.40;61.30;;;;;;4989409;28;20037;-78
2022/08/05 11:39:47;;;;;;;1.00;0.20;;;27.30;60.60;;;;;;4990081;28;20033;-78
2022/08/05 11:42:15;;;;;;;0.52;0.20;;;27.50;60.90;;;;;;5022838;28;20049;-78
2022/08/05 11:44:42;;;;;;;0.82;0.20;;;27.70;60.30;;;;;;5004017;28;20021;-78
2022/08/05 11:47:08;;;;;;;1.15;0.25;;;27.70;59.80;;;;;;5005936;28;20385;-78
2022/08/05 11:49:35;;;;;;;0.75;0.20;;;27.70;59.20;;;;;;4992487;28;20358;-78
2022/08/05 11:52:02;;;;;;;0.77;0.30;;;27.70;58.00;;;;;;5005486;28;20041;-78
2022/08/05 11:54:33;;;;;;;1.02;0.20;;;27.70;57.80;;;;;;4987756;28;20048;-78
2022/08/05 11:57:01;;;;;;;0.77;0.20;;;27.60;57.50;;;;;;4993766;28;20029;-78
2022/08/05 12:00:00;;;;;;;0.65;0.20;;;27.50;56.90;;;;;;5007181;28;20037;-78
2022/08/05 12:03:24;;;;;;;0.40;0.20;;;27.70;56.60;;;;;;4988854;28;20057;-78
2022/08/05 12:06:11;;;;;;;0.65;0.20;;;27.90;55.90;;;;;;4932189;28;20035;-78
2022/08/05 12:09:05;;;;;;;1.48;0.30;;;27.80;55.00;;;;;;4934678;28;20363;-78
2022/08/05 12:12:05;;;;;;;0.63;0.20;;;27.70;55.00;;;;;;4969218;28;20074;-78
2022/08/05 12:14:44;;;;;;;1.27;0.20;;;28.10;54.40;;;;;;4956813;28;20058;-78
2022/08/05 12:17:19;;;;;;;1.42;0.30;;;29.00;52.10;;;;;;4970546;28;20043;-78
2022/08/05 12:19:58;;;;;;;0.70;0.30;;;29.00;51.20;;;;;;4946083;28;20478;-78
2022/08/05 12:22:45;;;;;;;0.93;0.22;;;28.70;51.30;;;;;;4946924;28;20034;-78
2022/08/05 12:25:16;;;;;;;1.35;0.20;;;28.40;51.90;;;;;;4942664;28;20031;-78
2022/08/05 12:28:09;;;;;;;0.82;0.20;;;28.30;51.00;;;;;;4951003;28;20073;-78
2022/08/05 12:30:37;;;;;;;0.20;0.10;;;28.20;51.10;;;;;;4962883;28;20051;-78
2022/08/05 12:33:06;;;;;;;1.88;0.20;;;28.10;51.00;;;;;;4967955;28;20061;-78
2022/08/05 12:35:38;;;;;;;1.33;0.20;;;28.40;50.10;;;;;;4948513;28;20383;-78
2022/08/05 12:38:08;;;;;;;1.40;0.20;;;28.40;50.20;;;;;;4986351;28;20045;-78
2022/08/05 12:40:42;;;;;;;1.45;0.20;;;28.50;50.40;;;;;;4979645;28;20440;-78
2022/08/05 12:43:40;;;;;;;1.20;0.10;;;28.30;51.00;;;;;;5004967;28;20041;-78
2022/08/05 12:46:39;;;;;;;0.63;0.20;;;28.50;51.60;;;;;;5001351;28;20468;-78
2022/08/05 12:49:16;;;;;;;1.52;0.30;;;29.00;50.20;;;;;;5018465;28;20037;-78
2022/08/05 12:52:10;;;;;;;0.73;0.30;;;29.50;49.60;;;;;;5006383;28;20049;-78
2022/08/05 12:54:45;;;;;;;2.13;0.10;;;30.10;48.40;;;;;;5016055;28;20669;-78
2022/08/05 12:57:12;;;;;;;1.80;0.20;;;30.10;47.40;;;;;;5002569;28;20034;-79
2022/08/05 12:59:44;;;;;;;0.52;0.10;;;30.20;47.00;;;;;;4980711;28;20056;-78
2022/08/05 13:02:14;;;;;;;0.50;0.10;;;29.90;47.20;;;;;;5004111;28;20037;-78
2022/08/05 13:04:42;;;;;;;0.40;0.20;;;29.30;47.40;;;;;;4999613;28;20021;-77
2022/08/05 13:07:12;;;;;;;1.02;0.20;;;28.70;47.60;;;;;;5020480;28;20013;-77
2022/08/05 13:09:41;;;;;;;0.98;0.20;;;28.20;49.60;;;;;;4986007;28;20037;-77
2022/08/05 13:12:12;;;;;;;2.15;0.40;;;28.60;49.00;;;;;;4987706;28;20061;-78
2022/08/05 13:14:41;;;;;;;3.05;0.32;;;29.40;48.50;;;;;;4986136;28;20033;-78
2022/08/05 13:17:15;;;;;;;0.75;0.30;;;30.30;47.10;;;;;;5003331;28;20040;-78
2022/08/05 13:19:56;;;;;;;2.78;0.30;;;31.20;46.30;;;;;;5005383;28;20018;-78
2022/08/05 13:22:24;;;;;;;0.75;0.20;;;32.40;45.70;;;;;;5020074;28;20032;-78
2022/08/05 13:24:50;;;;;;;1.75;0.20;;;33.30;45.20;;;;;;4998922;28;20024;-78
2022/08/05 13:27:33;;;;;;;0.68;0.28;;;33.90;45.10;;;;;;4985756;28;20038;-78
2022/08/05 13:30:00;;;;;;;2.47;0.20;;;33.90;44.60;;;;;;5002890;28;20028;-78
2022/08/05 13:32:27;;;;;;;2.22;0.20;;;33.30;45.00;;;;;;5019439;28;21115;-78
2022/08/05 13:34:54;;;;;;;1.20;0.20;;;32.50;45.10;;;;;;5001871;28;20377;-78
2022/08/05 13:37:21;;;;;;;0.75;0.20;;;32.50;44.50;;;;;;5002236;28;20022;-78
2022/08/05 13:39:54;;;;;;;4.57;0.20;;;33.40;44.30;;;;;;5001659;28;20441;-78
2022/08/05 13:42:23;;;;;;;0.50;0.20;;;34.20;42.80;;;;;;4989286;28;20021;-79
2022/08/05 13:44:55;;;;;;;1.13;0.20;;;35.00;42.00;;;;;;4999471;28;20022;-78